Time;durP1;ratioP1;P1;durP2;ratioP2;P2;SDS_P1;SDS_P2;PMS_P1;PMS_P2;Temp;Humidity;BMP_temperature;BMP_pressure;BME280_temperature;BME280_humidity;BME280_pressure;Samples;Min_cycle;Max_cycle;Signal;HPM_P1;HPM_P2
2021/12/19 00:00:12;;;;;;;4.50;2.20;;;-1.00;1.40;;;-0.22;100.00;96809.66;646269;216;31588;-74
2021/12/19 00:03:08;;;;;;;8.77;3.08;;;-1.00;1.40;;;-0.24;100.00;96800.05;645811;216;31547;-74
2021/12/19 00:08:39;;;;;;;3.90;2.10;;;-0.90;1.40;;;-0.25;100.00;96789.46;648013;216;32226;-75
2021/12/19 00:11:10;;;;;;;5.80;2.03;;;-0.90;1.40;;;-0.21;100.00;96790.73;619516;226;32518;-74
2021/12/19 00:13:52;;;;;;;2.75;1.20;;;-1.00;1.40;;;-0.31;100.00;96803.59;646677;216;31720;-73
2021/12/19 00:16:33;;;;;;;2.03;1.75;;;-1.00;1.40;;;-0.23;100.00;96814.17;647682;212;31853;-74
2021/12/19 00:19:15;;;;;;;2.90;2.60;;;-1.00;1.40;;;-0.10;100.00;96816.53;646595;216;31872;-74
2021/12/19 00:22:00;;;;;;;2.30;1.80;;;-0.90;1.40;;;0.12;100.00;96814.17;646850;212;42219;-75
2021/12/19 00:24:42;;;;;;;1.50;0.80;;;-0.80;1.40;;;0.04;100.00;96812.23;647563;216;31528;-75
2021/12/19 00:27:24;;;;;;;4.90;2.00;;;-0.80;1.40;;;0.02;100.00;96809.67;646424;216;31570;-75
2021/12/19 00:30:06;;;;;;;1.83;1.73;;;-0.80;1.40;;;-0.01;100.00;96819.53;647219;216;32163;-74
2021/12/19 00:32:48;;;;;;;2.90;1.30;;;-0.90;1.40;;;-0.03;100.00;96813.67;647824;212;31559;-74
2021/12/19 00:35:50;;;;;;;7.78;2.80;;;-0.90;1.40;;;-0.28;100.00;96805.31;647281;216;31563;-74
2021/12/19 00:38:32;;;;;;;6.35;2.10;;;-1.10;1.40;;;-0.46;100.00;96805.73;618735;225;31888;-74
2021/12/19 00:41:14;;;;;;;2.90;2.40;;;-1.20;1.40;;;-0.48;100.00;96799.81;647069;212;31551;-74
2021/12/19 00:46:50;;;;;;;2.30;2.10;;;-1.20;1.40;;;-0.52;100.00;96795.05;646671;212;31598;-74
2021/12/19 00:49:28;;;;;;;2.40;1.10;;;-1.20;1.40;;;-0.66;100.00;96776.77;619512;222;31992;-74
2021/12/19 00:52:13;;;;;;;1.90;1.58;;;-1.30;1.40;;;-0.49;100.00;96776.33;647861;216;31515;-74
2021/12/19 00:54:55;;;;;;;1.60;1.20;;;-1.20;1.40;;;-0.55;100.00;96783.48;647911;216;31521;-74
2021/12/19 00:57:37;;;;;;;3.58;2.78;;;-1.20;1.40;;;-0.52;100.00;96786.08;647402;212;31564;-74
2021/12/19 01:00:18;;;;;;;3.00;1.67;;;-1.10;1.40;;;-0.46;100.00;96787.80;618732;226;31912;-74
2021/12/19 01:03:00;;;;;;;2.80;2.50;;;-1.10;1.40;;;-0.30;100.00;96787.19;647488;212;31625;-75
2021/12/19 01:05:42;;;;;;;3.40;1.50;;;-1.10;1.40;;;-0.37;100.00;96782.91;639339;212;31808;-74
2021/12/19 01:08:23;;;;;;;2.50;1.40;;;-1.10;1.40;;;-0.37;100.00;96790.58;646804;212;42327;-75
2021/12/19 01:11:05;;;;;;;1.50;1.40;;;-1.10;1.40;;;-0.31;100.00;96793.27;646923;216;31575;-74
2021/12/19 01:13:47;;;;;;;2.17;2.03;;;-1.10;1.40;;;-0.47;100.00;96781.06;646370;212;31605;-75
2021/12/19 01:16:28;;;;;;;3.42;2.60;;;-1.10;1.40;;;-0.55;100.00;96766.39;647006;216;31575;-74
2021/12/19 01:19:10;;;;;;;2.00;1.45;;;-1.20;1.40;;;-0.58;100.00;96776.61;647382;216;42372;-74
2021/12/19 01:21:52;;;;;;;3.60;1.30;;;-1.10;1.40;;;-0.67;100.00;96770.92;646867;216;31592;-74
2021/12/19 01:24:33;;;;;;;2.83;1.12;;;-1.20;1.40;;;-0.61;100.00;96772.23;647304;216;31592;-74
2021/12/19 01:27:15;;;;;;;3.20;0.80;;;-1.30;1.40;;;-0.77;100.00;96766.67;618754;226;31919;-74
2021/12/19 01:29:58;;;;;;;3.00;1.80;;;-1.30;1.40;;;-0.54;100.00;96764.22;646905;212;33008;-75
2021/12/19 01:32:42;;;;;;;1.20;1.20;;;-1.20;1.40;;;-0.61;100.00;96774.86;646956;212;42144;-74
2021/12/19 01:35:51;;;;;;;3.05;2.75;;;-1.20;1.40;;;-0.50;100.00;96777.64;647193;216;31608;-74
2021/12/19 01:41:07;;;;;;;3.25;2.08;;;-1.20;1.40;;;-0.53;100.00;96771.98;648084;212;41980;-74
2021/12/19 01:43:48;;;;;;;8.20;2.12;;;-1.20;1.40;;;-0.56;100.00;96772.97;647935;216;31576;-74
2021/12/19 01:46:30;;;;;;;2.80;1.98;;;-1.20;1.40;;;-0.61;100.00;96774.22;646765;212;31593;-74
2021/12/19 01:49:12;;;;;;;2.53;2.33;;;-1.20;1.40;;;-0.60;100.00;96768.98;647102;216;31618;-74
2021/12/19 01:51:57;;;;;;;3.60;2.50;;;-1.30;1.40;;;-0.59;100.00;96766.77;645824;214;31586;-74
2021/12/19 01:54:38;;;;;;;3.60;2.33;;;-1.30;1.40;;;-0.61;100.00;96770.64;620432;226;32608;-74
2021/12/19 01:57:22;;;;;;;3.70;1.90;;;-1.20;1.40;;;-0.59;100.00;96772.81;647297;213;32405;-75
2021/12/19 02:00:02;;;;;;;3.35;3.10;;;-1.30;1.40;;;-0.58;100.00;96765.24;646887;216;32207;-74
2021/12/19 02:02:44;;;;;;;3.70;3.00;;;-1.40;1.40;;;-0.75;100.00;96768.68;646495;212;31588;-75
2021/12/19 02:08:04;;;;;;;2.20;2.10;;;-1.40;1.40;;;-0.68;100.00;96767.73;646474;212;31574;-75
2021/12/19 02:10:46;;;;;;;4.32;2.35;;;-1.40;1.40;;;-0.72;100.00;96767.98;632585;221;32300;-74
2021/12/19 02:13:28;;;;;;;2.33;1.85;;;-1.40;1.40;;;-0.80;100.00;96771.71;648799;216;31588;-75
2021/12/19 02:16:09;;;;;;;4.65;3.50;;;-1.40;1.40;;;-0.82;100.00;96771.01;647208;212;31543;-74
2021/12/19 02:18:51;;;;;;;4.40;2.87;;;-1.40;1.40;;;-0.79;100.00;96772.58;646163;212;31651;-74
2021/12/19 02:21:33;;;;;;;5.80;2.00;;;-1.40;1.40;;;-0.74;100.00;96772.64;647849;212;31563;-74
2021/12/19 02:24:17;;;;;;;3.80;3.30;;;-1.30;1.40;;;-0.63;100.00;96760.95;646958;216;31713;-74
2021/12/19 02:26:59;;;;;;;6.70;2.35;;;-1.30;1.40;;;-0.45;100.00;96758.49;620313;222;32116;-73
2021/12/19 02:29:41;;;;;;;3.78;2.80;;;-1.30;1.40;;;-0.42;100.00;96763.64;648508;216;31648;-75
2021/12/19 02:32:28;;;;;;;2.62;2.28;;;-1.20;1.40;;;-0.35;100.00;96765.23;645755;216;31651;-74
2021/12/19 02:36:03;;;;;;;3.58;3.00;;;-1.20;1.40;;;-0.31;100.00;96760.17;648929;212;32008;-74
2021/12/19 02:49:50;;;;;;;2.50;2.40;;;-1.20;1.40;;;-0.56;100.00;96751.15;619170;226;31883;-74
2021/12/19 02:52:31;;;;;;;5.70;1.80;;;-1.20;1.40;;;-0.37;100.00;96748.58;646759;216;31664;-74
2021/12/19 02:55:14;;;;;;;4.10;1.75;;;-1.20;1.40;;;-0.42;100.00;96743.22;647422;216;31559;-74
2021/12/19 02:57:55;;;;;;;4.90;1.70;;;-1.20;1.40;;;-0.28;100.00;96735.59;647000;216;31593;-74
2021/12/19 03:00:37;;;;;;;4.20;3.80;;;-1.20;1.40;;;-0.40;100.00;96742.25;646787;214;31616;-75
2021/12/19 03:03:25;;;;;;;2.40;1.80;;;-1.20;1.40;;;-0.37;100.00;96752.41;620193;226;31868;-75
2021/12/19 03:06:06;;;;;;;3.60;2.92;;;-1.20;1.40;;;-0.36;100.00;96747.62;637224;212;31703;-75
2021/12/19 03:08:51;;;;;;;4.37;3.25;;;-1.20;1.40;;;-0.34;100.00;96747.33;647322;216;31881;-75
2021/12/19 03:19:58;;;;;;;3.30;2.30;;;-1.30;1.40;;;-0.45;100.00;96749.61;646751;216;31601;-75
2021/12/19 03:22:40;;;;;;;4.00;2.95;;;-1.30;1.40;;;-0.65;100.00;96756.52;647534;216;31564;-75
2021/12/19 03:25:24;;;;;;;5.50;3.90;;;-1.40;1.40;;;-0.53;100.00;96747.19;646303;212;31738;-74
2021/12/19 03:28:06;;;;;;;2.90;2.65;;;-1.30;1.40;;;-0.46;100.00;96749.29;647969;212;34510;-75
2021/12/19 03:30:51;;;;;;;4.65;2.00;;;-1.30;1.40;;;-0.29;100.00;96735.91;648043;212;31555;-73
2021/12/19 03:35:51;;;;;;;1.62;1.52;;;-1.20;1.40;;;-0.37;100.00;96717.48;646714;212;31580;-74
2021/12/19 03:38:37;;;;;;;2.62;2.53;;;-1.20;1.40;;;-0.48;100.00;96717.69;646746;216;31621;-74
2021/12/19 03:41:19;;;;;;;2.63;2.37;;;-1.30;1.40;;;-0.54;100.00;96709.60;647335;216;31575;-74
2021/12/19 03:43:57;;;;;;;3.80;2.30;;;-1.30;1.40;;;-0.60;100.00;96710.13;647862;216;31959;-74
2021/12/19 03:46:38;;;;;;;3.70;2.70;;;-1.40;1.40;;;-0.65;100.00;96707.86;647589;212;32772;-75
2021/12/19 03:49:20;;;;;;;5.60;2.03;;;-1.40;1.40;;;-0.62;100.00;96718.46;620496;222;35260;-74
2021/12/19 03:52:05;;;;;;;3.03;2.58;;;-1.30;1.40;;;-0.60;100.00;96714.59;647490;212;31504;-74
2021/12/19 03:54:50;;;;;;;6.30;1.60;;;-1.30;1.40;;;-0.64;100.00;96723.55;646910;216;31543;-74
2021/12/19 03:57:31;;;;;;;2.95;2.75;;;-1.40;1.40;;;-0.66;100.00;96711.17;647262;216;31955;-75
2021/12/19 04:00:13;;;;;;;3.37;2.22;;;-1.40;1.40;;;-0.71;100.00;96703.35;647651;216;31592;-75
2021/12/19 04:02:56;;;;;;;8.05;3.25;;;-1.50;1.40;;;-0.62;100.00;96696.51;647378;216;31575;-75
2021/12/19 04:05:38;;;;;;;3.20;2.90;;;-1.40;1.40;;;-0.86;100.00;96694.25;640526;216;32306;-74
2021/12/19 04:08:22;;;;;;;4.10;2.42;;;-1.40;1.40;;;-0.83;100.00;96696.77;648468;216;31616;-74
2021/12/19 04:11:04;;;;;;;1.40;1.30;;;-1.50;1.40;;;-0.74;100.00;96687.98;646750;216;42303;-74
2021/12/19 04:13:45;;;;;;;5.30;3.42;;;-1.50;1.40;;;-0.80;100.00;96691.53;646243;216;31697;-75
2021/12/19 04:16:27;;;;;;;1.50;0.82;;;-1.40;1.40;;;-0.87;100.00;96687.67;647690;216;31756;-74
2021/12/19 04:19:09;;;;;;;1.80;1.30;;;-1.50;1.40;;;-0.85;100.00;96686.58;646763;216;31572;-74
2021/12/19 04:21:51;;;;;;;7.00;2.10;;;-1.60;1.40;;;-0.85;100.00;96688.31;647258;216;32326;-74
2021/12/19 04:24:32;;;;;;;5.15;4.22;;;-1.50;1.40;;;-0.80;100.00;96684.80;632330;222;42280;-75
2021/12/19 04:27:14;;;;;;;6.10;1.83;;;-1.50;1.40;;;-0.80;100.00;96675.47;646602;216;31712;-74
2021/12/19 04:29:57;;;;;;;2.37;2.17;;;-1.50;1.40;;;-0.70;100.00;96667.66;646724;216;42682;-74
2021/12/19 04:32:46;;;;;;;5.90;3.40;;;-1.50;1.40;;;-0.70;100.00;96673.70;632901;218;32032;-74
2021/12/19 04:35:58;;;;;;;3.30;3.10;;;-1.40;1.40;;;-0.63;100.00;96682.39;648347;216;31597;-74
2021/12/19 04:39:18;;;;;;;4.07;3.22;;;-1.40;1.40;;;-0.67;100.00;96672.13;647246;216;31616;-74
2021/12/19 04:44:36;;;;;;;4.90;2.53;;;-1.40;1.40;;;-0.66;100.00;96671.50;647027;216;32114;-75
2021/12/19 04:51:03;;;;;;;2.20;1.70;;;-1.40;1.40;;;-0.72;100.00;96665.88;646240;216;31550;-74
2021/12/19 04:55:39;;;;;;;2.92;2.08;;;-1.50;1.40;;;-0.87;100.00;96667.23;648385;212;31530;-74
2021/12/19 05:01:14;;;;;;;1.30;1.20;;;-1.70;1.40;;;-0.97;100.00;96672.79;645567;216;31724;-74
2021/12/19 05:04:04;;;;;;;9.57;2.35;;;-1.70;1.40;;;-0.89;100.00;96667.17;647445;212;31554;-74
2021/12/19 05:14:02;;;;;;;3.12;2.80;;;-1.60;1.40;;;-0.78;100.00;96650.14;635424;216;31688;-74
2021/12/19 05:15:07;;;;;;;7.00;2.47;;;-1.60;1.40;;;-1.04;100.00;96635.84;619595;222;32396;-74
2021/12/19 05:17:48;;;;;;;6.95;3.08;;;-1.60;1.40;;;-1.04;100.00;96626.59;619642;226;32734;-74
2021/12/19 05:23:21;;;;;;;2.70;2.28;;;-1.60;1.40;;;-1.16;100.00;96627.45;647425;213;31532;-74
2021/12/19 05:25:52;;;;;;;4.82;3.33;;;-1.70;1.40;;;-1.08;100.00;96632.49;647830;216;31516;-74
2021/12/19 05:28:34;;;;;;;2.45;1.77;;;-1.70;1.40;;;-1.17;100.00;96632.72;647081;216;31583;-75
2021/12/19 05:31:16;;;;;;;2.37;2.00;;;-1.70;1.40;;;-1.09;100.00;96627.83;647272;212;31575;-74
2021/12/19 05:47:48;;;;;;;2.62;2.42;;;-1.70;1.40;;;-0.97;100.00;96660.20;620177;226;31856;-74
2021/12/19 05:50:30;;;;;;;3.30;2.70;;;-1.70;1.40;;;-0.92;100.00;96664.52;646536;212;31494;-75
2021/12/19 05:53:14;;;;;;;3.00;1.55;;;-1.70;1.40;;;-0.98;100.00;96666.98;647005;216;31634;-74
2021/12/19 05:55:56;;;;;;;5.07;1.77;;;-1.70;1.40;;;-1.09;100.00;96655.64;647199;216;31552;-74
2021/12/19 05:58:38;;;;;;;3.12;2.83;;;-1.70;1.40;;;-1.08;100.00;96646.38;647948;216;32762;-74
2021/12/19 06:01:20;;;;;;;4.25;2.00;;;-1.60;1.40;;;-1.02;100.00;96643.70;647056;212;31724;-74
2021/12/19 06:04:01;;;;;;;3.15;2.25;;;-1.60;1.40;;;-1.15;100.00;96634.53;648041;216;31607;-75
2021/12/19 06:06:46;;;;;;;2.80;2.60;;;-1.70;1.40;;;-1.28;100.00;96640.05;634178;216;31771;-74
2021/12/19 06:09:29;;;;;;;3.50;1.90;;;-1.80;1.40;;;-1.22;100.00;96635.68;647499;212;42191;-74
2021/12/19 06:12:10;;;;;;;2.85;2.65;;;-1.80;1.40;;;-1.16;100.00;96632.87;646619;212;31744;-74
2021/12/19 06:14:53;;;;;;;2.12;1.60;;;-1.80;1.40;;;-1.00;100.00;96630.98;647198;212;31541;-77
2021/12/19 06:17:39;;;;;;;3.72;2.70;;;-1.70;1.40;;;-0.93;100.00;96638.27;619996;222;32007;-74
2021/12/19 06:20:28;;;;;;;1.23;1.10;;;-1.70;1.40;;;-1.18;100.00;96635.55;647548;216;31631;-75
2021/12/19 06:23:09;;;;;;;4.47;1.67;;;-1.70;1.40;;;-1.05;100.00;96641.81;619835;226;31960;-74
2021/12/19 06:25:53;;;;;;;2.90;2.70;;;-1.70;1.40;;;-0.99;100.00;96640.06;647557;212;32172;-75
2021/12/19 06:28:34;;;;;;;4.50;2.67;;;-1.60;1.40;;;-1.04;100.00;96639.03;647226;212;32361;-75
2021/12/19 06:31:16;;;;;;;3.72;3.35;;;-1.70;1.40;;;-0.92;100.00;96634.50;621137;222;32078;-74
2021/12/19 06:35:51;;;;;;;2.10;2.00;;;-1.60;1.40;;;-0.92;100.00;96624.59;647164;212;31630;-75
2021/12/19 06:38:36;;;;;;;3.90;1.80;;;-1.60;1.40;;;-0.88;100.00;96618.23;646195;213;31821;-75
2021/12/19 06:41:17;;;;;;;2.22;1.50;;;-1.60;1.40;;;-0.94;100.00;96611.31;646070;212;31530;-74
2021/12/19 06:43:59;;;;;;;3.60;2.28;;;-1.60;1.40;;;-0.98;100.00;96610.08;647064;212;31552;-74
2021/12/19 06:46:41;;;;;;;1.80;1.55;;;-1.70;1.40;;;-0.97;100.00;96613.68;647875;216;31642;-75
2021/12/19 06:49:22;;;;;;;1.95;1.85;;;-1.70;1.40;;;-0.97;100.00;96622.49;645733;216;31559;-75
2021/12/19 06:52:07;;;;;;;1.40;1.30;;;-1.70;1.40;;;-1.07;100.00;96623.39;619758;226;32027;-74
2021/12/19 06:54:49;;;;;;;3.33;2.37;;;-1.70;1.40;;;-1.11;100.00;96624.58;647725;212;31593;-74
2021/12/19 06:57:30;;;;;;;2.80;2.20;;;-1.70;1.40;;;-1.05;100.00;96621.22;646839;216;31546;-75
2021/12/19 07:00:15;;;;;;;4.80;1.65;;;-1.70;1.40;;;-1.14;100.00;96612.48;646746;216;31563;-73
2021/12/19 07:02:57;;;;;;;3.00;1.60;;;-1.70;1.40;;;-1.00;100.00;96603.27;646053;212;31994;-74
2021/12/19 07:05:38;;;;;;;3.22;2.15;;;-1.60;1.40;;;-0.96;100.00;96609.14;640911;212;31754;-75
2021/12/19 07:08:21;;;;;;;3.03;2.28;;;-1.60;1.40;;;-1.01;100.00;96610.33;618661;226;32363;-74
2021/12/19 07:11:02;;;;;;;2.20;1.40;;;-1.70;1.40;;;-1.04;100.00;96611.83;647336;216;32137;-74
2021/12/19 07:13:53;;;;;;;4.30;3.58;;;-1.70;1.40;;;-0.99;100.00;96605.86;646363;216;31532;-75
2021/12/19 07:16:40;;;;;;;2.40;2.22;;;-1.70;1.40;;;-1.17;100.00;96591.31;631899;217;31752;-74
2021/12/19 07:19:22;;;;;;;2.30;1.60;;;-1.80;1.40;;;-1.14;100.00;96597.02;647157;216;31589;-75
2021/12/19 07:22:04;;;;;;;1.90;1.80;;;-1.80;1.40;;;-1.24;100.00;96592.94;649028;212;31578;-74
2021/12/19 07:24:46;;;;;;;3.30;1.30;;;-1.80;1.40;;;-1.19;100.00;96602.77;631496;222;31773;-74
2021/12/19 07:27:28;;;;;;;2.60;2.30;;;-1.80;1.40;;;-1.20;100.00;96602.42;646675;212;31509;-74
2021/12/19 07:30:11;;;;;;;3.33;2.85;;;-1.80;1.40;;;-1.17;100.00;96593.93;646847;216;31552;-74
2021/12/19 07:32:54;;;;;;;2.20;1.30;;;-1.80;1.40;;;-1.19;100.00;96595.40;647588;212;31498;-74
2021/12/19 07:35:52;;;;;;;1.85;1.73;;;-1.80;1.40;;;-1.12;100.00;96587.00;619787;222;32374;-74
2021/12/19 07:38:39;;;;;;;2.62;2.35;;;-1.80;1.40;;;-1.23;100.00;96589.11;646844;212;42192;-74
2021/12/19 07:41:17;;;;;;;2.03;1.10;;;-1.80;1.40;;;-1.08;100.00;96584.77;648081;212;32652;-74
2021/12/19 07:43:59;;;;;;;1.70;1.60;;;-1.80;1.40;;;-1.31;100.00;96585.77;647589;212;32385;-74
2021/12/19 07:46:41;;;;;;;1.57;1.57;;;-1.80;1.40;;;-1.25;100.00;96593.23;653095;213;24017;-74
2021/12/19 07:49:22;;;;;;;1.73;1.62;;;-1.80;1.40;;;-1.25;100.00;96600.09;648075;212;32078;-74
2021/12/19 07:52:04;;;;;;;6.25;2.53;;;-1.70;1.40;;;-1.40;100.00;96614.80;647777;212;32323;-74
2021/12/19 07:54:46;;;;;;;2.53;2.05;;;-1.80;1.40;;;-1.29;100.00;96608.58;646730;212;31597;-74
2021/12/19 07:57:28;;;;;;;3.20;2.40;;;-1.70;1.40;;;-1.05;100.00;96604.81;648589;212;31652;-74
2021/12/19 08:00:11;;;;;;;3.15;1.52;;;-1.60;1.40;;;-1.02;100.00;96595.23;646544;212;42065;-74
2021/12/19 08:02:53;;;;;;;2.90;1.67;;;-1.70;1.40;;;-0.95;100.00;96582.77;647182;212;31574;-74
2021/12/19 08:05:37;;;;;;;3.95;2.53;;;-1.70;1.40;;;-1.13;100.00;96573.11;640535;212;31848;-74
2021/12/19 08:08:25;;;;;;;3.58;1.95;;;-1.60;1.40;;;-1.24;100.00;96572.52;647833;216;31787;-74
2021/12/19 08:13:48;;;;;;;1.50;1.20;;;-1.50;1.40;;;-0.96;100.00;96568.30;647111;212;42115;-75
2021/12/19 08:16:30;;;;;;;4.18;2.55;;;-1.50;1.40;;;-0.94;100.00;96563.89;646714;212;31699;-74
2021/12/19 08:19:11;;;;;;;2.20;2.00;;;-1.50;1.40;;;-0.87;100.00;96557.59;646931;212;31561;-74
2021/12/19 08:21:57;;;;;;;1.70;1.60;;;-1.40;1.40;;;-0.59;100.00;96555.72;645779;212;31655;-74
2021/12/19 08:24:38;;;;;;;2.92;2.65;;;-1.20;1.40;;;-0.64;100.00;96556.83;647383;216;31624;-75
2021/12/19 08:27:20;;;;;;;2.50;2.30;;;-1.30;1.40;;;-0.76;100.00;96556.09;619900;226;31855;-75
2021/12/19 08:30:05;;;;;;;3.37;2.45;;;-1.20;1.40;;;-0.61;100.00;96550.91;619006;226;32017;-74
2021/12/19 08:32:47;;;;;;;1.83;1.73;;;-1.10;1.40;;;-0.42;100.00;96544.25;646330;216;32099;-75
2021/12/19 08:35:54;;;;;;;4.43;2.33;;;-1.00;1.40;;;-0.27;100.00;96545.24;647544;216;31933;-74
2021/12/19 08:38:35;;;;;;;2.78;1.73;;;-0.80;1.40;;;0.15;100.00;96543.96;646648;216;31861;-75
2021/12/19 08:41:17;;;;;;;2.87;2.05;;;-0.50;1.40;;;0.30;100.00;96545.75;647303;212;31676;-75
2021/12/19 08:44:02;;;;;;;3.45;2.60;;;-0.30;1.40;;;0.32;100.00;96546.25;647562;212;42308;-75
2021/12/19 08:46:45;;;;;;;3.42;2.17;;;-0.20;1.40;;;0.78;100.00;96545.61;646636;216;31653;-74
2021/12/19 08:52:00;;;;;;;2.58;2.37;;;1.00;1.40;;;1.94;100.00;96553.33;646272;216;31620;-75
2021/12/19 08:54:42;;;;;;;6.15;4.20;;;1.20;1.40;;;1.82;100.00;96554.13;647358;216;31562;-75
2021/12/19 08:57:24;;;;;;;3.00;2.80;;;0.80;1.40;;;2.12;100.00;96549.67;648449;216;32650;-75
2021/12/19 09:00:11;;;;;;;5.00;2.65;;;1.80;1.40;;;2.89;100.00;96543.45;647636;212;31846;-74
2021/12/19 09:02:55;;;;;;;6.20;4.50;;;2.30;1.40;;;3.71;100.00;96530.30;646788;216;32305;-74
2021/12/19 09:05:33;;;;;;;5.75;3.95;;;2.80;1.40;;;3.59;100.00;96526.65;641170;212;32245;-75
2021/12/19 09:08:15;;;;;;;5.78;4.60;;;2.40;1.40;;;4.39;100.00;96517.07;646263;212;32760;-74
2021/12/19 09:10:57;;;;;;;5.12;4.62;;;3.70;1.40;;;5.08;100.00;96514.55;643275;216;33342;-75
2021/12/19 09:13:42;;;;;;;3.70;3.22;;;3.90;1.40;;;5.84;100.00;96530.25;620463;222;31935;-76
2021/12/19 09:16:25;;;;;;;5.90;3.83;;;4.70;1.40;;;6.54;100.00;96535.80;646795;212;31574;-75
2021/12/19 09:19:12;;;;;;;3.83;3.40;;;5.40;1.40;;;7.17;100.00;96536.31;645725;216;31572;-76
2021/12/19 09:22:00;;;;;;;4.80;3.65;;;5.90;1.40;;;7.24;100.00;96523.81;647969;216;32186;-76
2021/12/19 09:24:42;;;;;;;5.00;3.83;;;5.20;1.40;;;6.90;96.71;96517.70;646534;212;31598;-75
2021/12/19 09:27:24;;;;;;;5.43;3.50;;;4.20;1.40;;;7.55;100.00;96515.70;647594;216;32206;-75
2021/12/19 09:30:06;;;;;;;5.90;4.10;;;5.40;1.40;;;7.71;96.87;96519.34;647018;216;31644;-75
2021/12/19 09:32:49;;;;;;;6.70;3.50;;;5.60;1.40;;;7.96;99.62;96510.99;619239;226;32120;-74
2021/12/19 09:35:52;;;;;;;4.68;3.62;;;5.00;1.40;;;8.14;90.76;96518.36;645505;216;31564;-73
2021/12/19 09:38:35;;;;;;;4.37;3.60;;;5.30;1.40;;;8.30;91.31;96500.95;647508;214;32921;-76
2021/12/19 09:41:27;;;;;;;5.40;3.70;;;6.60;1.40;;;9.16;84.22;96502.90;619461;225;38119;-77
2021/12/19 09:44:03;;;;;;;4.90;4.35;;;5.80;1.40;;;8.79;86.90;96506.73;647049;212;31679;-75
2021/12/19 09:46:48;;;;;;;4.55;3.70;;;5.60;1.40;;;9.23;84.89;96505.77;647549;212;31571;-76
2021/12/19 09:49:32;;;;;;;4.95;3.78;;;6.80;1.40;;;9.31;81.51;96509.64;647125;216;31608;-74
2021/12/19 09:52:12;;;;;;;5.57;3.42;;;7.00;1.40;;;9.64;78.65;96501.75;646058;216;31597;-74
2021/12/19 09:54:54;;;;;;;6.70;4.07;;;7.70;1.40;;;9.74;80.00;96502.26;645904;216;31575;-75
2021/12/19 09:57:36;;;;;;;4.55;3.25;;;6.80;1.40;;;10.13;76.79;96498.59;647052;216;31554;-75
2021/12/19 10:00:17;;;;;;;6.15;3.60;;;7.70;1.40;;;10.17;78.10;96496.20;647732;216;31580;-76
2021/12/19 10:02:59;;;;;;;4.90;3.83;;;7.70;1.40;;;10.46;69.66;96482.34;618914;225;32135;-74
2021/12/19 10:05:41;;;;;;;5.03;3.55;;;7.30;1.40;;;10.62;75.54;96469.60;646934;212;31608;-74
2021/12/19 10:08:25;;;;;;;5.37;4.50;;;7.80;1.40;;;9.77;74.95;96461.14;645667;212;31670;-76
2021/12/19 10:11:14;;;;;;;4.62;3.00;;;6.30;1.40;;;9.37;75.18;96462.23;646151;216;31933;-76
2021/12/19 10:13:49;;;;;;;4.95;3.35;;;6.20;1.40;;;9.98;75.97;96451.52;647032;213;31587;-76
2021/12/19 10:16:32;;;;;;;4.82;3.70;;;7.10;1.40;;;9.78;78.07;96446.90;647071;216;32202;-76
2021/12/19 10:19:13;;;;;;;5.28;3.65;;;7.00;1.40;;;12.50;77.95;96430.88;646869;212;31604;-75
2021/12/19 10:21:58;;;;;;;5.40;4.18;;;9.00;1.40;;;12.50;68.96;96417.48;618977;226;42745;-75
2021/12/19 10:24:40;;;;;;;4.47;3.30;;;9.50;1.40;;;13.93;72.59;96411.33;619451;226;31910;-74
2021/12/19 10:27:34;;;;;;;4.62;3.42;;;10.20;1.40;;;12.07;60.59;96413.23;645847;216;31578;-76
2021/12/19 10:30:21;;;;;;;4.70;3.67;;;8.30;1.40;;;12.47;63.50;96409.11;647119;216;31605;-75
2021/12/19 10:35:54;;;;;;;4.80;3.47;;;7.80;1.40;;;11.50;62.61;96390.49;647289;212;31878;-76
2021/12/19 10:38:42;;;;;;;6.05;3.10;;;7.10;1.40;;;10.26;77.62;96389.06;646657;216;31614;-77
2021/12/19 10:41:31;;;;;;;4.22;2.80;;;7.20;1.40;;;11.10;70.12;96376.98;647397;216;31536;-75
2021/12/19 10:45:29;;;;;;;4.50;3.40;;;8.20;1.40;;;12.76;64.24;96370.84;646656;212;31617;-74
2021/12/19 10:46:50;;;;;;;4.60;3.28;;;7.60;1.40;;;13.45;61.78;96362.25;647603;216;31598;-76
2021/12/19 10:49:33;;;;;;;5.87;3.85;;;8.70;1.40;;;12.38;60.64;96359.09;647596;216;32382;-75
2021/12/19 10:52:14;;;;;;;4.35;3.05;;;9.30;1.40;;;12.06;64.48;96358.77;646436;216;31708;-75
2021/12/19 10:54:56;;;;;;;6.50;3.80;;;7.60;1.40;;;11.26;66.05;96351.93;646805;212;31551;-75
2021/12/19 10:57:37;;;;;;;4.40;3.28;;;7.90;1.40;;;12.17;62.54;96342.78;647269;216;42194;-77
2021/12/19 11:00:25;;;;;;;4.85;3.10;;;8.60;1.40;;;11.63;63.71;96346.16;646118;216;31728;-75
2021/12/19 11:03:07;;;;;;;4.63;3.60;;;8.10;1.40;;;12.25;61.13;96339.24;619784;222;32048;-74
2021/12/19 11:05:50;;;;;;;5.93;3.72;;;9.20;1.40;;;11.88;58.32;96335.87;640356;216;31737;-75
2021/12/19 11:08:33;;;;;;;4.07;2.90;;;9.30;1.40;;;10.36;65.01;96336.48;647230;212;32424;-77
2021/12/19 11:11:14;;;;;;;3.80;3.30;;;7.60;1.40;;;9.26;71.79;96330.33;641872;216;32751;-75
2021/12/19 11:13:59;;;;;;;4.15;3.12;;;6.30;1.40;;;9.25;75.27;96320.11;618057;222;31952;-75
2021/12/19 11:16:41;;;;;;;5.12;3.37;;;6.50;1.40;;;9.98;74.60;96309.47;647892;212;31586;-75
2021/12/19 11:19:22;;;;;;;6.82;4.25;;;7.20;1.40;;;9.59;74.61;96305.81;647959;216;31656;-76
2021/12/19 11:22:04;;;;;;;4.82;2.90;;;8.00;1.40;;;10.38;70.76;96300.79;647685;212;42229;-77
2021/12/19 11:24:46;;;;;;;4.18;3.10;;;7.30;1.40;;;11.19;72.63;96297.83;646837;212;31594;-75
2021/12/19 11:27:28;;;;;;;5.68;3.95;;;9.10;1.40;;;11.59;68.60;96291.46;647986;212;31611;-77
2021/12/19 11:30:10;;;;;;;5.50;3.40;;;9.80;1.40;;;12.88;60.99;96288.66;645786;216;31734;-77
2021/12/19 11:32:55;;;;;;;5.45;3.50;;;10.90;1.40;;;13.32;59.13;96289.90;647117;216;31559;-75
2021/12/19 11:35:52;;;;;;;4.05;3.30;;;10.30;1.40;;;12.99;57.94;96289.92;647607;216;32002;-75
2021/12/19 11:38:36;;;;;;;5.72;3.90;;;10.20;1.40;;;13.39;58.27;96274.59;647533;216;31573;-76
2021/12/19 11:41:17;;;;;;;4.35;3.53;;;10.60;1.40;;;13.91;54.07;96270.81;647902;212;32520;-77
2021/12/19 11:44:04;;;;;;;5.43;3.10;;;10.90;1.40;;;13.86;56.18;96267.87;647494;212;31642;-76
2021/12/19 11:46:49;;;;;;;5.30;3.73;;;10.40;1.40;;;13.58;55.13;96259.95;646024;212;31674;-76
2021/12/19 11:49:28;;;;;;;4.47;3.13;;;10.20;1.40;;;14.35;56.93;96249.49;620282;222;32001;-77
2021/12/19 11:52:24;;;;;;;4.50;3.55;;;10.60;1.40;;;12.62;59.27;96250.63;646970;216;31830;-77
2021/12/19 11:55:18;;;;;;;4.15;3.35;;;9.90;1.40;;;11.93;59.83;96245.29;646570;216;31576;-75
2021/12/19 11:58:19;;;;;;;6.27;3.30;;;8.30;1.40;;;9.44;70.46;96251.87;646559;216;31607;-74
2021/12/19 12:01:01;;;;;;;5.22;3.65;;;7.20;1.40;;;8.20;82.11;96243.01;618984;222;31909;-76
2021/12/19 12:03:51;;;;;;;4.50;2.70;;;7.10;1.40;;;8.26;84.37;96234.42;646792;212;31688;-76
2021/12/19 12:06:33;;;;;;;4.93;3.05;;;6.40;1.40;;;8.26;84.52;96228.37;635891;212;31735;-75
2021/12/19 12:09:19;;;;;;;3.42;2.37;;;6.20;1.40;;;7.43;90.57;96225.84;647590;212;31883;-74
2021/12/19 12:12:11;;;;;;;4.57;3.20;;;5.80;1.40;;;8.24;87.23;96223.13;645518;216;31609;-75
2021/12/19 12:14:55;;;;;;;4.10;2.70;;;6.10;1.40;;;7.64;90.73;96221.91;646594;214;41486;-76
2021/12/19 12:17:40;;;;;;;4.93;3.30;;;5.60;1.40;;;7.88;91.18;96216.73;619109;222;32574;-76
2021/12/19 12:20:18;;;;;;;3.30;2.28;;;6.30;1.40;;;8.39;89.18;96214.91;647195;212;31606;-74
2021/12/19 12:23:05;;;;;;;3.03;2.40;;;6.60;1.40;;;8.26;88.12;96204.55;646249;212;31581;-76
2021/12/19 12:25:44;;;;;;;3.00;2.70;;;6.40;1.40;;;7.26;98.52;96198.17;646501;216;32162;-76
2021/12/19 12:28:26;;;;;;;3.07;2.23;;;5.90;1.40;;;7.40;99.16;96187.05;646994;212;32660;-76
2021/12/19 12:31:08;;;;;;;4.87;3.00;;;5.60;1.40;;;7.31;99.95;96179.04;646101;212;42311;-76
2021/12/19 12:35:55;;;;;;;3.33;2.60;;;5.50;1.40;;;6.47;100.00;96172.08;624306;222;32538;-75
2021/12/19 12:38:36;;;;;;;2.72;2.30;;;5.50;1.40;;;6.60;100.00;96152.41;647169;216;42758;-76
2021/12/19 12:44:23;;;;;;;4.00;2.60;;;5.80;1.40;;;6.74;100.00;96139.63;647333;212;31575;-76
2021/12/19 12:47:06;;;;;;;4.23;2.60;;;6.10;1.40;;;6.82;100.00;96135.39;645675;212;31598;-76
2021/12/19 12:49:47;;;;;;;3.20;2.30;;;6.00;1.40;;;6.70;100.00;96137.13;647764;216;31535;-75
2021/12/19 12:52:32;;;;;;;3.40;2.00;;;5.80;1.40;;;6.64;100.00;96133.30;619848;226;32045;-75
2021/12/19 12:55:15;;;;;;;2.97;2.10;;;5.90;1.40;;;7.05;100.00;96129.84;647773;216;31608;-75